createdAt,value
2018-04-16T00:01:23.654Z,13.80
2018-04-16T00:03:51.641Z,13.90
2018-04-16T00:06:18.366Z,13.90
2018-04-16T00:08:44.646Z,13.80
2018-04-16T00:11:10.926Z,13.80
2018-04-16T00:13:37.513Z,13.80
2018-04-16T00:16:05.214Z,13.80
2018-04-16T00:18:31.936Z,13.80
2018-04-16T00:20:58.866Z,13.80
2018-04-16T00:23:25.813Z,13.80
2018-04-16T00:25:52.805Z,13.90
2018-04-16T00:28:19.632Z,13.90
2018-04-16T00:30:46.476Z,13.90
2018-04-16T00:36:29.432Z,13.80
2018-04-16T00:39:03.820Z,13.70
2018-04-16T00:41:49.951Z,13.70
2018-04-16T00:44:22.234Z,13.70
2018-04-16T00:46:57.281Z,13.60
2018-04-16T00:49:30.513Z,13.60
2018-04-16T00:52:02.875Z,13.50
2018-04-16T00:54:35.278Z,13.50
2018-04-16T00:57:07.733Z,13.60
2018-04-16T00:59:40.438Z,13.50
2018-04-16T01:02:12.745Z,13.50
2018-04-16T01:04:57.227Z,13.50
2018-04-16T01:07:29.469Z,13.50
2018-04-16T01:10:02.491Z,13.40
2018-04-16T01:12:36.469Z,13.40
2018-04-16T01:15:10.592Z,13.40
2018-04-16T01:17:43.656Z,13.40
2018-04-16T01:20:16.716Z,13.40
2018-04-16T01:22:49.664Z,13.50
2018-04-16T01:25:22.770Z,13.60
2018-04-16T01:27:55.841Z,13.50
2018-04-16T01:30:29.458Z,13.50
2018-04-16T01:33:02.532Z,13.50
2018-04-16T01:35:35.616Z,13.50
2018-04-16T01:38:09.649Z,13.60
2018-04-16T01:40:42.832Z,13.50
2018-04-16T01:43:16.529Z,13.60
2018-04-16T01:45:49.495Z,13.60
2018-04-16T01:48:22.381Z,13.50
2018-04-16T01:50:54.673Z,13.50
2018-04-16T01:53:27.797Z,13.60
2018-04-16T01:56:00.134Z,13.60
2018-04-16T01:58:33.297Z,13.70
2018-04-16T02:01:05.628Z,13.60
2018-04-16T02:03:52.104Z,13.60
2018-04-16T02:06:25.831Z,13.50
2018-04-16T02:08:58.192Z,13.50
2018-04-16T02:11:31.112Z,13.40
2018-04-16T02:14:04.270Z,13.40
2018-04-16T02:16:36.608Z,13.40
2018-04-16T02:19:09.213Z,13.40
2018-04-16T02:21:42.816Z,13.50
2018-04-16T02:24:16.268Z,13.50
2018-04-16T02:26:48.701Z,13.40
2018-04-16T02:29:21.791Z,13.50
2018-04-16T02:32:03.872Z,13.50
2018-04-16T02:34:37.396Z,13.50
2018-04-16T02:37:09.998Z,13.50
2018-04-16T02:39:42.429Z,13.60
2018-04-16T02:42:15.981Z,13.60
2018-04-16T02:47:52.633Z,13.50
2018-04-16T02:50:24.918Z,13.40
2018-04-16T02:52:57.461Z,13.50
2018-04-16T02:55:29.872Z,13.40
2018-04-16T02:58:02.317Z,13.50
2018-04-16T03:00:34.693Z,13.50
2018-04-16T03:03:07.367Z,13.50
2018-04-16T03:05:41.069Z,13.50
2018-04-16T03:08:14.134Z,13.50
2018-04-16T03:10:47.136Z,13.50
2018-04-16T03:13:20.216Z,13.50
2018-04-16T03:15:52.805Z,13.50
2018-04-16T03:18:25.917Z,13.50
2018-04-16T03:20:58.865Z,13.50
2018-04-16T03:23:31.878Z,13.50
2018-04-16T03:26:05.889Z,13.60
2018-04-16T03:28:39.349Z,13.60
2018-04-16T03:31:22.142Z,13.50
2018-04-16T03:33:55.073Z,13.50
2018-04-16T03:36:40.869Z,13.50
2018-04-16T03:39:13.896Z,13.50
2018-04-16T03:41:46.749Z,13.50
2018-04-16T03:44:19.813Z,13.40
2018-04-16T03:46:53.710Z,13.30
2018-04-16T03:49:26.277Z,13.30
2018-04-16T03:55:05.168Z,13.20
2018-04-16T03:57:32.001Z,13.20
2018-04-16T03:59:58.261Z,13.20
2018-04-16T04:02:24.521Z,13.20
2018-04-16T04:04:51.205Z,13.10
2018-04-16T04:07:18.205Z,13.20
2018-04-16T04:09:44.904Z,13.30
2018-04-16T04:12:11.928Z,13.30
2018-04-16T04:14:38.297Z,13.30
2018-04-16T04:17:05.645Z,13.30
2018-04-16T04:19:32.621Z,13.30
2018-04-16T04:21:59.224Z,13.30
2018-04-16T04:24:39.298Z,13.30
2018-04-16T04:27:19.445Z,13.40
2018-04-16T04:29:58.774Z,13.20
2018-04-16T04:32:26.352Z,13.30
2018-04-16T04:34:53.425Z,13.30
2018-04-16T04:37:19.715Z,13.20
2018-04-16T04:39:46.338Z,13.30
2018-04-16T04:42:13.117Z,13.30
2018-04-16T04:44:40.105Z,13.40
2018-04-16T04:47:06.926Z,13.40
2018-04-16T04:49:34.382Z,13.50
2018-04-16T04:52:01.388Z,13.40
2018-04-16T04:54:27.657Z,13.40
2018-04-16T04:56:55.255Z,13.40
2018-04-16T04:59:21.505Z,13.30
2018-04-16T05:01:47.769Z,13.40
2018-04-16T05:04:14.664Z,13.40
2018-04-16T05:06:42.085Z,13.40
2018-04-16T05:09:08.357Z,13.40
2018-04-16T05:11:35.344Z,13.40
2018-04-16T05:14:01.629Z,13.40
2018-04-16T05:16:28.625Z,13.40
2018-04-16T05:18:55.937Z,13.30
2018-04-16T05:21:23.514Z,13.40
2018-04-16T05:23:50.976Z,13.40
2018-04-16T05:26:17.957Z,13.40
2018-04-16T05:28:44.795Z,13.40
2018-04-16T05:31:11.625Z,13.40
2018-04-16T05:33:38.638Z,13.30
2018-04-16T05:36:04.901Z,13.30
2018-04-16T05:38:32.171Z,13.20
2018-04-16T05:40:59.765Z,13.20
2018-04-16T05:43:26.026Z,13.20
2018-04-16T05:45:52.923Z,13.20
2018-04-16T05:48:19.623Z,13.30
2018-04-16T05:50:46.439Z,13.30
2018-04-16T05:53:12.693Z,13.30
2018-04-16T05:55:38.981Z,13.30
2018-04-16T05:58:06.240Z,13.20
2018-04-16T06:00:33.935Z,13.20
2018-04-16T06:03:01.774Z,13.20
2018-04-16T06:05:29.208Z,13.20
2018-04-16T06:07:55.470Z,13.30
2018-04-16T06:10:22.465Z,13.40
2018-04-16T06:12:48.965Z,13.40
2018-04-16T06:15:15.973Z,13.40
2018-04-16T06:17:42.648Z,13.40
2018-04-16T06:20:10.298Z,13.40
2018-04-16T06:22:37.185Z,13.40
2018-04-16T06:25:04.677Z,13.50
2018-04-16T06:34:17.925Z,13.50
2018-04-16T06:36:44.207Z,13.50
2018-04-16T06:39:10.473Z,13.40
2018-04-16T06:41:37.469Z,13.40
2018-04-16T06:44:04.892Z,13.40
2018-04-16T06:46:31.784Z,13.40
2018-04-16T06:48:59.182Z,13.50
2018-04-16T06:51:25.479Z,13.40
2018-04-16T06:53:53.013Z,13.50
2018-04-16T06:56:19.310Z,13.50
2018-04-16T06:58:45.585Z,13.50
2018-04-16T07:01:12.541Z,13.50
2018-04-16T07:03:40.281Z,13.50
2018-04-16T07:06:06.560Z,13.50
2018-04-16T07:08:33.858Z,13.60
2018-04-16T07:11:00.365Z,13.60
2018-04-16T07:13:27.461Z,13.80
2018-04-16T07:15:54.420Z,13.80
2018-04-16T07:18:22.181Z,13.80
2018-04-16T07:20:49.091Z,13.70
2018-04-16T07:23:15.951Z,13.70
2018-04-16T07:25:42.874Z,13.70
2018-04-16T07:28:09.882Z,13.70
2018-04-16T07:30:36.681Z,13.80
2018-04-16T07:33:03.697Z,13.80
2018-04-16T07:35:30.589Z,13.80
2018-04-16T07:37:56.852Z,13.80
2018-04-16T07:40:23.722Z,13.80
2018-04-16T07:42:49.988Z,13.70
2018-04-16T07:45:16.847Z,13.80
2018-04-16T07:47:44.320Z,13.80
2018-04-16T07:50:11.045Z,13.80
2018-04-16T07:52:38.141Z,13.80
2018-04-16T07:55:04.438Z,13.80
2018-04-16T07:57:31.470Z,13.80
2018-04-16T07:59:58.246Z,13.80
2018-04-16T08:02:25.239Z,13.80
2018-04-16T08:04:51.880Z,13.80
2018-04-16T08:07:18.136Z,13.90
2018-04-16T08:09:44.376Z,13.90
2018-04-16T08:12:10.946Z,14.00
2018-04-16T08:14:39.255Z,14.00
2018-04-16T08:17:05.509Z,14.00
2018-04-16T08:19:31.769Z,14.10
2018-04-16T08:21:58.576Z,14.10
2018-04-16T08:24:25.484Z,14.20
2018-04-16T08:26:52.945Z,14.30
2018-04-16T08:29:20.113Z,14.30
2018-04-16T08:31:47.154Z,14.40
2018-04-16T08:34:13.936Z,14.30
2018-04-16T08:36:40.263Z,14.50
2018-04-16T08:39:06.570Z,14.60
2018-04-16T08:41:33.381Z,14.50
2018-04-16T08:44:00.127Z,14.50
2018-04-16T08:46:27.334Z,14.70
2018-04-16T08:48:54.853Z,14.90
2018-04-16T08:51:21.109Z,14.80
2018-04-16T08:53:48.129Z,15.00
2018-04-16T08:56:14.929Z,15.00
2018-04-16T08:58:42.007Z,15.10
2018-04-16T09:01:08.761Z,15.10
2018-04-16T09:03:35.025Z,15.20
2018-04-16T09:06:01.687Z,15.20
2018-04-16T09:08:27.941Z,15.20
2018-04-16T09:10:54.952Z,15.40
2018-04-16T09:13:21.758Z,15.40
2018-04-16T09:15:48.052Z,15.50
2018-04-16T09:18:15.646Z,15.50
2018-04-16T09:20:43.457Z,15.50
2018-04-16T09:23:10.454Z,15.50
2018-04-16T09:25:37.471Z,15.50
2018-04-16T09:28:04.264Z,15.50
2018-04-16T09:30:31.836Z,15.50
2018-04-16T09:32:58.835Z,15.50
2018-04-16T09:35:25.498Z,15.50
2018-04-16T09:37:52.174Z,15.50
2018-04-16T09:40:19.943Z,15.60
2018-04-16T09:42:48.204Z,15.70
2018-04-16T09:45:14.456Z,15.70
2018-04-16T09:47:41.897Z,15.90
2018-04-16T09:50:08.144Z,15.90
2018-04-16T09:52:35.141Z,16.00
2018-04-16T09:55:02.057Z,16.10
2018-04-16T09:57:28.304Z,16.10
2018-04-16T09:59:55.192Z,16.20
2018-04-16T10:02:24.433Z,16.30
2018-04-16T10:04:52.768Z,16.40
2018-04-16T10:07:19.017Z,16.40
2018-04-16T10:09:46.322Z,16.50
2018-04-16T10:12:12.571Z,16.40
2018-04-16T10:14:38.825Z,16.30
2018-04-16T10:17:05.725Z,16.20
2018-04-16T10:19:33.182Z,16.20
2018-04-16T10:22:00.548Z,16.20
2018-04-16T10:24:28.222Z,16.10
2018-04-16T10:26:55.295Z,16.20
2018-04-16T10:29:22.510Z,16.10
2018-04-16T10:31:49.487Z,16.10
2018-04-16T10:34:15.785Z,16.00
2018-04-16T10:36:42.074Z,15.90
2018-04-16T10:39:08.702Z,15.90
2018-04-16T10:41:36.496Z,16.00
2018-04-16T10:44:02.757Z,16.00
2018-04-16T10:46:29.637Z,16.00
2018-04-16T10:48:57.618Z,16.20
2018-04-16T10:51:25.180Z,16.20
2018-04-16T10:53:52.720Z,16.20
2018-04-16T10:56:18.969Z,16.20
2018-04-16T10:58:45.211Z,16.20
2018-04-16T11:01:12.224Z,16.50
2018-04-16T11:03:39.333Z,16.50
2018-04-16T11:06:05.624Z,16.70
2018-04-16T11:08:32.573Z,17.00
2018-04-16T11:10:58.841Z,17.10
2018-04-16T11:13:26.407Z,17.40
2018-04-16T11:15:53.952Z,17.60
2018-04-16T11:18:20.185Z,17.60
2018-04-16T11:20:46.949Z,17.60
2018-04-16T11:23:14.355Z,17.80
2018-04-16T11:25:40.663Z,17.80
2018-04-16T11:28:06.944Z,17.90
2018-04-16T11:30:33.896Z,18.00
2018-04-16T11:33:00.193Z,18.00
2018-04-16T11:35:27.121Z,17.70
2018-04-16T11:37:54.152Z,17.80
2018-04-16T11:40:21.624Z,17.60
2018-04-16T11:42:49.098Z,17.60
2018-04-16T11:45:16.861Z,17.50
2018-04-16T11:47:44.229Z,17.30
2018-04-16T11:50:11.694Z,17.30
2018-04-16T11:52:39.078Z,17.10
2018-04-16T11:55:05.360Z,17.10
2018-04-16T11:57:31.658Z,17.10
2018-04-16T11:59:57.928Z,16.90
2018-04-16T12:02:24.798Z,16.90
2018-04-16T12:04:52.490Z,16.80
2018-04-16T12:07:18.736Z,16.80
2018-04-16T12:09:44.992Z,16.80
2018-04-16T12:12:11.852Z,16.70
2018-04-16T12:14:38.592Z,16.80
2018-04-16T12:17:04.860Z,16.70
2018-04-16T12:19:31.861Z,16.60
2018-04-16T12:21:58.765Z,16.60
2018-04-16T12:24:26.248Z,16.60
2018-04-16T12:26:52.518Z,16.60
2018-04-16T12:29:18.765Z,16.70
2018-04-16T12:31:45.645Z,16.80
2018-04-16T12:34:13.225Z,16.70
2018-04-16T12:36:39.557Z,16.70
2018-04-16T12:39:06.598Z,16.80
2018-04-16T12:41:33.466Z,16.70
2018-04-16T12:44:00.178Z,16.80
2018-04-16T12:46:27.633Z,16.90
2018-04-16T12:48:54.228Z,16.90
2018-04-16T12:51:21.016Z,16.90
2018-04-16T12:53:47.277Z,16.90
2018-04-16T12:56:14.708Z,16.70
2018-04-16T12:58:40.995Z,16.80
2018-04-16T13:01:07.245Z,16.70
2018-04-16T13:03:34.062Z,16.80
2018-04-16T13:06:01.728Z,16.80
2018-04-16T13:08:29.237Z,16.90
2018-04-16T13:10:55.997Z,16.90
2018-04-16T13:13:22.245Z,16.90
2018-04-16T13:15:48.514Z,17.00
2018-04-16T13:18:14.798Z,17.10
2018-04-16T13:20:41.898Z,17.10
2018-04-16T13:23:09.984Z,17.10
2018-04-16T13:25:36.253Z,17.10
2018-04-16T13:28:02.535Z,17.20
2018-04-16T13:30:30.104Z,17.30
2018-04-16T13:32:57.105Z,17.30
2018-04-16T13:35:23.418Z,17.30
2018-04-16T13:37:49.688Z,17.30
2018-04-16T13:40:16.509Z,17.50
2018-04-16T13:42:42.776Z,17.50
2018-04-16T13:45:09.664Z,17.60
2018-04-16T13:47:37.324Z,17.90
2018-04-16T13:50:04.885Z,18.20
2018-04-16T13:52:31.880Z,18.30
2018-04-16T13:54:58.125Z,18.30
2018-04-16T13:57:24.624Z,18.50
2018-04-16T13:59:51.625Z,18.50
2018-04-16T14:02:18.264Z,18.50
2018-04-16T14:04:45.693Z,18.40
2018-04-16T14:07:12.567Z,18.40
2018-04-16T14:09:39.372Z,18.30
2018-04-16T14:12:05.661Z,18.20
2018-04-16T14:14:31.888Z,18.10
2018-04-16T14:16:58.489Z,18.10
2018-04-16T14:19:25.485Z,18.00
2018-04-16T14:21:53.197Z,18.00
2018-04-16T14:24:20.885Z,18.00
2018-04-16T14:26:48.314Z,18.00
2018-04-16T14:29:15.323Z,17.80
2018-04-16T14:31:42.037Z,17.80
2018-04-16T14:34:08.872Z,17.80
2018-04-16T14:36:35.876Z,17.60
2018-04-16T14:39:02.209Z,17.60
2018-04-16T14:41:29.120Z,17.60
2018-04-16T14:43:55.848Z,17.60
2018-04-16T14:46:23.735Z,17.60
2018-04-16T14:48:51.288Z,17.40
2018-04-16T14:51:18.282Z,17.40
2018-04-16T14:53:44.535Z,17.40
2018-04-16T14:56:11.125Z,17.40
2018-04-16T14:58:38.903Z,17.40
2018-04-16T15:01:05.497Z,17.40
2018-04-16T15:03:32.349Z,17.30
2018-04-16T15:05:58.939Z,17.30
2018-04-16T15:08:25.199Z,17.30
2018-04-16T15:10:52.836Z,17.30
2018-04-16T15:13:19.678Z,17.30
2018-04-16T15:15:47.083Z,17.20
2018-04-16T15:18:13.988Z,17.20
2018-04-16T15:20:41.855Z,17.00
2018-04-16T15:23:09.412Z,17.00
2018-04-16T15:25:36.407Z,17.00
2018-04-16T15:28:02.687Z,16.90
2018-04-16T15:30:29.467Z,16.90
2018-04-16T15:32:55.810Z,16.90
2018-04-16T15:35:22.060Z,16.90
2018-04-16T15:37:48.466Z,17.00
2018-04-16T15:40:15.511Z,16.90
2018-04-16T15:42:43.359Z,16.90
2018-04-16T15:45:10.214Z,16.90
2018-04-16T15:47:36.848Z,16.80
2018-04-16T15:50:03.150Z,16.80
2018-04-16T15:52:29.422Z,16.70
2018-04-16T15:54:55.759Z,16.70
2018-04-16T15:57:22.729Z,16.70
2018-04-16T15:59:49.748Z,16.50
2018-04-16T16:02:17.477Z,16.40
2018-04-16T16:04:44.174Z,16.30
2018-04-16T16:07:10.437Z,16.30
2018-04-16T16:09:37.436Z,16.10
2018-04-16T16:12:04.348Z,16.20
2018-04-16T16:14:30.692Z,16.20
2018-04-16T16:16:57.616Z,16.20
2018-04-16T16:19:25.161Z,16.20
2018-04-16T16:21:52.154Z,16.20
2018-04-16T16:24:19.095Z,16.20
2018-04-16T16:26:45.365Z,16.20
2018-04-16T16:29:11.676Z,16.10
2018-04-16T16:31:38.512Z,16.10
2018-04-16T16:34:04.778Z,16.10
2018-04-16T16:36:31.572Z,16.10
2018-04-16T16:38:58.837Z,16.10
2018-04-16T16:41:26.314Z,16.00
2018-04-16T16:43:52.957Z,16.00
2018-04-16T16:46:19.692Z,16.00
2018-04-16T16:48:47.244Z,15.80
2018-04-16T16:51:13.517Z,15.80
2018-04-16T16:53:40.477Z,15.70
2018-04-16T16:56:06.737Z,15.70
2018-04-16T16:58:35.476Z,15.70
2018-04-16T17:01:03.141Z,15.60
2018-04-16T17:03:30.825Z,15.60
2018-04-16T17:05:57.496Z,15.60
2018-04-16T17:08:23.752Z,15.60
2018-04-16T17:10:50.538Z,15.60
2018-04-16T17:13:16.838Z,15.60
2018-04-16T17:15:43.607Z,15.50
2018-04-16T17:18:10.611Z,15.50
2018-04-16T17:20:36.913Z,15.50
2018-04-16T17:23:03.182Z,15.50
2018-04-16T17:25:29.887Z,15.50
2018-04-16T17:27:56.134Z,15.40
2018-04-16T17:30:23.037Z,15.40
2018-04-16T17:32:49.668Z,15.40
2018-04-16T17:35:16.645Z,15.40
2018-04-16T17:37:43.649Z,15.30
2018-04-16T17:40:10.360Z,15.30
2018-04-16T17:42:37.209Z,15.20
2018-04-16T17:45:04.206Z,15.10
2018-04-16T17:47:31.097Z,15.10
2018-04-16T17:49:58.525Z,15.00
2018-04-16T17:52:25.213Z,15.00
2018-04-16T17:54:52.678Z,14.90
2018-04-16T17:57:19.423Z,14.90
2018-04-16T17:59:46.374Z,14.90
2018-04-16T18:02:12.625Z,14.90
2018-04-16T18:04:40.342Z,14.80
2018-04-16T18:07:07.346Z,14.80
2018-04-16T18:09:33.593Z,14.70
2018-04-16T18:12:00.198Z,14.70
2018-04-16T18:14:27.275Z,14.60
2018-04-16T18:16:53.634Z,14.60
2018-04-16T18:19:20.222Z,14.60
2018-04-16T18:21:48.009Z,14.50
2018-04-16T18:24:14.694Z,14.50
2018-04-16T18:26:40.973Z,14.50
2018-04-16T18:29:07.969Z,14.40
2018-04-16T18:31:34.689Z,14.40
2018-04-16T18:34:01.569Z,14.40
2018-04-16T18:36:28.367Z,14.40
2018-04-16T18:38:55.382Z,14.40
2018-04-16T18:41:22.294Z,14.40
2018-04-16T18:43:48.557Z,14.30
2018-04-16T18:46:15.464Z,14.40
2018-04-16T18:48:43.941Z,14.40
2018-04-16T18:51:10.945Z,14.30
2018-04-16T18:53:38.173Z,14.30
2018-04-16T18:56:04.997Z,14.40
2018-04-16T18:58:32.001Z,14.30
2018-04-16T19:00:58.808Z,14.30
2018-04-16T19:03:25.860Z,14.30
2018-04-16T19:05:52.495Z,14.30
2018-04-16T19:08:19.576Z,14.20
2018-04-16T19:10:45.865Z,14.30
2018-04-16T19:13:12.774Z,14.30
2018-04-16T19:15:39.048Z,14.20
2018-04-16T19:18:05.801Z,14.20
2018-04-16T19:20:40.928Z,14.20
2018-04-16T19:23:07.788Z,14.20
2018-04-16T19:25:35.272Z,14.20
2018-04-16T19:28:22.433Z,14.20
2018-04-16T19:30:49.267Z,14.20
2018-04-16T19:33:22.912Z,14.20
2018-04-16T19:35:50.493Z,14.20
2018-04-16T19:38:17.634Z,14.20
2018-04-16T19:40:46.160Z,14.20
2018-04-16T19:43:13.205Z,14.10
2018-04-16T19:45:39.970Z,14.10
2018-04-16T19:48:06.809Z,14.00
2018-04-16T19:50:33.818Z,14.10
2018-04-16T19:53:01.635Z,14.00
2018-04-16T19:55:29.559Z,14.00
2018-04-16T20:01:01.836Z,14.10
2018-04-16T20:03:36.012Z,14.00
2018-04-16T20:06:02.327Z,14.10
2018-04-16T20:08:29.192Z,14.00
2018-04-16T20:10:56.420Z,14.00
2018-04-16T20:13:22.687Z,14.10
2018-04-16T20:15:48.956Z,14.00
2018-04-16T20:18:15.636Z,14.00
2018-04-16T20:20:42.442Z,14.00
2018-04-16T20:23:09.591Z,14.00
2018-04-16T20:25:36.900Z,14.00
2018-04-16T20:28:03.849Z,14.00
2018-04-16T20:30:30.888Z,14.00
2018-04-16T20:32:57.945Z,13.90
2018-04-16T20:35:24.390Z,13.90
2018-04-16T20:37:50.798Z,13.90
2018-04-16T20:40:18.406Z,13.80
2018-04-16T20:42:44.845Z,13.80
2018-04-16T20:45:11.963Z,13.80
2018-04-16T20:47:39.623Z,13.70
2018-04-16T20:50:07.464Z,13.70
2018-04-16T20:52:34.396Z,13.70
2018-04-16T20:55:01.466Z,13.70
2018-04-16T20:57:28.209Z,13.70
2018-04-16T20:59:54.593Z,13.70
2018-04-16T21:02:20.956Z,13.70
2018-04-16T21:04:49.059Z,13.70
2018-04-16T21:07:15.434Z,13.70
2018-04-16T21:12:15.209Z,13.60
2018-04-16T21:14:41.459Z,13.50
2018-04-16T21:17:08.161Z,13.60
2018-04-16T21:19:35.404Z,13.60
2018-04-16T21:22:02.636Z,13.50
2018-04-16T21:24:29.292Z,13.50
2018-04-16T21:26:56.078Z,13.50
2018-04-16T21:29:22.324Z,13.50
2018-04-16T21:31:48.978Z,13.60
2018-04-16T21:34:15.317Z,13.50
2018-04-16T21:36:41.557Z,13.50
2018-04-16T21:39:08.143Z,13.50
2018-04-16T21:41:35.907Z,13.60
2018-04-16T21:44:02.936Z,13.60
2018-04-16T21:46:30.094Z,13.60
2018-04-16T21:48:57.889Z,13.60
2018-04-16T21:51:24.908Z,13.50
2018-04-16T21:53:52.021Z,13.50
2018-04-16T21:56:18.433Z,13.50
2018-04-16T21:58:45.423Z,13.40
2018-04-16T22:01:12.744Z,13.40
2018-04-16T22:03:40.509Z,13.40
2018-04-16T22:06:07.528Z,13.40
2018-04-16T22:08:33.772Z,13.40
2018-04-16T22:11:00.528Z,13.40
2018-04-16T22:13:27.202Z,13.40
2018-04-16T22:15:53.516Z,13.40
2018-04-16T22:18:19.758Z,13.40
2018-04-16T22:20:47.589Z,13.40
2018-04-16T22:23:14.584Z,13.40
2018-04-16T22:25:42.040Z,13.40
2018-04-16T22:28:09.017Z,13.40
2018-04-16T22:30:35.931Z,13.40
2018-04-16T22:33:02.184Z,13.30
2018-04-16T22:35:29.181Z,13.30
2018-04-16T22:37:55.416Z,13.30
2018-04-16T22:40:22.716Z,13.30
2018-04-16T22:42:49.696Z,13.30
2018-04-16T22:45:16.376Z,13.30
2018-04-16T22:47:43.104Z,13.30
2018-04-16T22:50:10.012Z,13.30
2018-04-16T22:52:37.484Z,13.30
2018-04-16T22:55:05.694Z,13.30
2018-04-16T22:57:32.556Z,13.30
2018-04-16T22:59:58.815Z,13.20
2018-04-16T23:02:25.088Z,13.20
2018-04-16T23:04:51.681Z,13.10
2018-04-16T23:07:17.947Z,13.20
2018-04-16T23:09:45.836Z,13.20
2018-04-16T23:12:12.764Z,13.20
2018-04-16T23:14:39.755Z,13.00
2018-04-16T23:17:06.004Z,13.00
2018-04-16T23:19:33.044Z,13.00
2018-04-16T23:22:00.145Z,13.10
2018-04-16T23:24:26.968Z,13.10
2018-04-16T23:26:53.755Z,13.10
2018-04-16T23:29:20.756Z,13.10
2018-04-16T23:31:47.578Z,13.00
2018-04-16T23:34:13.815Z,13.10
2018-04-16T23:36:40.707Z,13.10
2018-04-16T23:39:06.973Z,13.10
2018-04-16T23:41:34.416Z,13.00
2018-04-16T23:44:01.143Z,13.00
2018-04-16T23:46:28.027Z,13.00
2018-04-16T23:48:55.441Z,13.10
2018-04-16T23:51:21.676Z,13.10
2018-04-16T23:53:47.927Z,13.10
2018-04-16T23:56:14.593Z,13.10
2018-04-16T23:58:41.582Z,13.00
